Time;durP1;ratioP1;P1;durP2;ratioP2;P2;SDS_P1;SDS_P2;PMS_P1;PMS_P2;Temp;Humidity;BMP_temperature;BMP_pressure;BME280_temperature;BME280_humidity;BME280_pressure;Samples;Min_cycle;Max_cycle;Signal;HPM_P1;HPM_P2
2022/10/30 00:01:38;;;;;;;62.15;15.80;;;;;;;17.78;68.94;98786.03;5277630;27;20046;-80
2022/10/30 00:04:05;;;;;;;90.05;16.58;;;;;;;18.57;65.59;98791.53;5276968;27;20077;-80
2022/10/30 00:06:31;;;;;;;69.50;15.32;;;;;;;18.61;64.28;98787.81;5277450;27;20058;-80
2022/10/30 00:08:58;;;;;;;87.80;15.60;;;;;;;18.46;65.40;98788.75;5277503;27;20045;-80
2022/10/30 00:11:25;;;;;;;139.95;17.35;;;;;;;18.07;65.34;98787.69;5276997;26;20049;-80
2022/10/30 00:13:52;;;;;;;121.70;17.95;;;;;;;17.52;67.08;98801.44;5277503;27;20092;-80
2022/10/30 00:16:19;;;;;;;90.72;16.85;;;;;;;16.77;69.09;98797.09;5258069;27;20076;-80
2022/10/30 00:18:46;;;;;;;101.82;17.40;;;;;;;17.06;69.18;98796.28;5277188;27;20488;-80
2022/10/30 00:21:14;;;;;;;128.52;17.60;;;;;;;17.85;65.76;98792.53;5277418;27;20045;-80
2022/10/30 00:23:46;;;;;;;71.22;17.00;;;;;;;18.37;63.42;98786.72;5277080;27;20058;-80
2022/10/30 00:26:13;;;;;;;88.20;16.52;;;;;;;18.18;64.12;98785.28;5277127;27;20329;-80
2022/10/30 00:28:40;;;;;;;89.32;15.77;;;;;;;18.09;64.49;98785.00;5277264;27;20332;-80
2022/10/30 00:31:07;;;;;;;82.93;16.25;;;;;;;17.79;65.51;98791.16;5276935;27;20049;-81
2022/10/30 00:33:34;;;;;;;95.87;16.35;;;;;;;17.27;67.10;98785.53;5277379;27;20077;-81
2022/10/30 00:36:01;;;;;;;96.68;17.10;;;;;;;17.17;67.30;98787.00;5277444;26;20066;-81
2022/10/30 00:38:28;;;;;;;89.28;16.17;;;;;;;16.57;69.86;98786.91;5276764;27;20060;-81
2022/10/30 00:40:54;;;;;;;59.63;14.77;;;;;;;17.66;66.68;98774.53;5277351;27;20071;-81
2022/10/30 00:43:34;;;;;;;51.05;14.65;;;;;;;18.19;63.97;98779.13;5277511;26;20061;-81
2022/10/30 00:46:34;;;;;;;49.50;13.95;;;;;;;18.10;63.83;98765.78;5277382;27;20107;-81
2022/10/30 00:49:15;;;;;;;93.62;16.60;;;;;;;18.37;62.38;98761.44;5276801;27;20061;-81
2022/10/30 00:51:45;;;;;;;64.28;15.23;;;;;;;17.98;64.38;98762.16;5277813;27;20046;-81
2022/10/30 00:54:14;;;;;;;41.55;13.05;;;;;;;17.92;63.63;98749.47;5258851;27;20066;-81
2022/10/30 00:56:41;;;;;;;57.53;13.73;;;;;;;17.88;63.89;98748.00;5278295;27;20375;-81
2022/10/30 00:59:11;;;;;;;41.10;13.62;;;;;;;17.87;63.05;98752.38;5277765;27;20046;-81
2022/10/30 01:01:41;;;;;;;50.20;13.30;;;;;;;17.46;64.46;98752.25;5278268;27;20123;-81
2022/10/30 01:04:09;;;;;;;38.17;12.82;;;;;;;17.26;66.07;98749.97;5278035;27;20057;-81
2022/10/30 01:06:39;;;;;;;48.90;13.55;;;;;;;17.66;63.68;98748.44;5277681;27;20057;-81
2022/10/30 01:09:06;;;;;;;50.47;13.98;;;;;;;17.67;63.26;98746.66;5258780;27;20050;-81
2022/10/30 01:11:32;;;;;;;60.47;14.15;;;;;;;17.09;65.95;98747.50;5277845;27;20049;-81
2022/10/30 01:14:03;;;;;;;47.17;13.88;;;;;;;17.31;66.10;98747.91;5277622;27;20164;-81
2022/10/30 01:16:36;;;;;;;75.28;15.20;;;;;;;17.70;64.28;98739.50;5258732;27;20065;-81
2022/10/30 01:19:25;;;;;;;48.97;13.40;;;;;;;16.82;66.11;98722.09;5278169;27;20064;-81
2022/10/30 01:22:10;;;;;;;39.70;13.15;;;;;;;16.73;67.57;98726.06;5277838;27;20056;-81
2022/10/30 01:24:57;;;;;;;42.70;13.62;;;;;;;17.41;64.08;98729.94;5258737;27;20070;-81
2022/10/30 01:27:53;;;;;;;48.47;14.10;;;;;;;17.49;64.40;98727.72;5277587;27;20210;-81
2022/10/30 01:30:54;;;;;;;39.92;12.63;;;;;;;17.91;61.83;98727.75;5278145;27;20060;-81
2022/10/30 01:33:45;;;;;;;67.57;13.52;;;;;;;17.56;63.08;98735.09;5278212;27;20045;-81
2022/10/30 01:36:20;;;;;;;64.80;14.25;;;;;;;16.67;66.82;98738.56;5278001;27;20062;-81
2022/10/30 01:38:51;;;;;;;116.72;16.17;;;;;;;16.75;67.01;98729.41;5278032;27;20075;-81
2022/10/30 01:41:18;;;;;;;131.07;15.98;;;;;;;17.50;64.41;98726.78;5258287;27;20064;-81
2022/10/30 01:43:46;;;;;;;131.48;16.20;;;;;;;18.13;61.30;98736.88;5258872;27;20049;-81
2022/10/30 01:47:04;;;;;;;148.10;16.80;;;;;;;17.72;62.65;98723.75;5258705;26;20072;-81
2022/10/30 01:50:00;;;;;;;258.58;19.60;;;;;;;17.34;63.62;98725.12;5276871;27;20081;-81
2022/10/30 01:53:08;;;;;;;70.82;13.68;;;;;;;15.99;69.53;98725.00;5258850;27;20103;-81
2022/10/30 01:55:41;;;;;;;78.53;14.95;;;;;;;16.13;68.86;98727.69;5258304;27;20053;-81
2022/10/30 01:58:17;;;;;;;91.57;16.58;;;;;;;16.29;67.98;98719.87;5258664;27;20057;-81
2022/10/30 02:00:46;;;;;;;66.03;15.43;;;;;;;16.65;66.88;98716.97;5258819;27;20061;-81
2022/10/30 02:03:13;;;;;;;52.90;14.65;;;;;;;16.80;66.68;98710.94;5277589;27;20094;-81
2022/10/30 02:05:47;;;;;;;78.80;15.15;;;;;;;16.88;66.65;98715.69;5277874;27;20050;-81
2022/10/30 02:08:14;;;;;;;30.12;13.32;;;;;;;16.99;65.67;98713.28;5277833;27;20119;-81
2022/10/30 02:10:43;;;;;;;71.32;16.50;;;;;;;17.08;65.68;98709.31;5258113;27;20406;-81
2022/10/30 02:13:10;;;;;;;61.13;14.05;;;;;;;17.80;63.34;98704.09;5278087;27;20113;-81
2022/10/30 02:15:37;;;;;;;43.92;13.68;;;;;;;18.59;59.82;98698.19;5277793;27;20049;-81
2022/10/30 02:18:04;;;;;;;33.47;12.73;;;;;;;17.70;62.72;98689.09;5258395;26;20061;-81
2022/10/30 02:20:31;;;;;;;32.90;12.75;;;;;;;17.67;62.95;98686.66;5278023;27;20080;-81
2022/10/30 02:22:58;;;;;;;27.85;12.75;;;;;;;17.49;63.93;98692.03;5277531;27;20064;-81
2022/10/30 02:25:25;;;;;;;56.28;13.75;;;;;;;17.63;63.01;98705.06;5277867;26;20049;-81
2022/10/30 02:27:52;;;;;;;57.25;15.70;;;;;;;16.34;68.92;98718.69;5277942;27;20065;-81
2022/10/30 02:30:19;;;;;;;64.50;15.02;;;;;;;14.01;79.18;98728.72;5277413;27;20069;-81
2022/10/30 02:32:46;;;;;;;101.18;17.83;;;;;;;14.85;75.78;98713.53;5277881;27;20050;-81
2022/10/30 02:35:13;;;;;;;40.40;14.23;;;;;;;15.47;72.53;98712.09;5277654;27;20461;-81
2022/10/30 02:37:40;;;;;;;40.20;15.15;;;;;;;16.07;69.96;98702.00;5277529;27;20114;-81
2022/10/30 02:40:07;;;;;;;47.25;14.43;;;;;;;16.69;67.58;98715.88;5277810;27;20087;-81
2022/10/30 02:42:34;;;;;;;46.33;14.20;;;;;;;16.90;66.44;98713.81;5277905;27;20105;-81
2022/10/30 02:45:01;;;;;;;79.90;16.17;;;;;;;16.97;66.11;98708.19;5277337;27;20059;-81
2022/10/30 02:47:28;;;;;;;53.97;14.38;;;;;;;17.39;64.71;98703.97;5277813;27;20065;-81
2022/10/30 02:49:55;;;;;;;102.60;13.75;;;;;;;17.65;62.61;98704.97;5277689;27;20072;-81
2022/10/30 02:52:22;;;;;;;106.70;17.92;;;;;;;14.73;72.67;98700.22;5277551;26;20061;-81
2022/10/30 02:54:49;;;;;;;56.22;14.75;;;;;;;15.75;69.65;98688.97;5277587;27;20046;-81
2022/10/30 02:57:16;;;;;;;60.97;13.75;;;;;;;16.68;65.69;98675.97;5277732;27;20072;-81
2022/10/30 02:59:43;;;;;;;102.75;15.68;;;;;;;16.68;64.67;98675.13;5277304;27;20057;-81
2022/10/30 03:02:09;;;;;;;199.93;19.37;;;;;;;15.89;67.59;98686.44;5277783;27;20060;-81
2022/10/30 03:04:37;;;;;;;215.87;19.70;;;;;;;16.36;66.36;98689.94;5277649;27;20060;-81
2022/10/30 03:07:03;;;;;;;159.77;15.57;;;;;;;17.12;63.41;98682.13;5277126;27;20073;-81
2022/10/30 03:09:30;;;;;;;214.07;17.20;;;;;;;17.43;61.94;98684.56;5277066;27;20072;-81
2022/10/30 03:11:57;;;;;;;188.40;15.45;;;;;;;16.65;64.90;98675.28;5277160;26;20064;-81
2022/10/30 03:14:24;;;;;;;160.02;16.20;;;;;;;16.27;66.00;98688.72;5277649;27;20042;-81
2022/10/30 03:16:51;;;;;;;100.25;14.45;;;;;;;15.64;68.92;98687.84;5277717;27;20065;-81
2022/10/30 03:19:18;;;;;;;77.35;12.93;;;;;;;16.94;64.50;98692.72;5277329;26;20057;-81
2022/10/30 03:21:45;;;;;;;82.88;13.02;;;;;;;16.96;64.10;98698.69;5277790;27;20053;-81
2022/10/30 03:24:12;;;;;;;131.18;14.52;;;;;;;17.14;63.46;98701.16;5277774;27;20112;-81
2022/10/30 03:26:39;;;;;;;82.65;12.65;;;;;;;16.81;63.91;98696.13;5277102;27;20123;-81
2022/10/30 03:29:06;;;;;;;116.93;14.57;;;;;;;17.20;62.15;98698.16;5277519;27;20072;-81
2022/10/30 03:31:33;;;;;;;48.58;11.68;;;;;;;16.28;65.35;98697.37;5277695;27;20054;-81
2022/10/30 03:34:00;;;;;;;50.53;13.32;;;;;;;16.10;65.56;98694.00;5277389;27;20079;-81
2022/10/30 03:36:27;;;;;;;60.28;14.50;;;;;;;14.74;71.00;98693.28;5277578;27;20071;-81
2022/10/30 03:38:55;;;;;;;119.10;16.65;;;;;;;14.13;73.32;98696.19;5277874;26;20058;-81
2022/10/30 03:41:22;;;;;;;71.22;15.32;;;;;;;14.53;72.01;98687.38;5277504;26;20498;-81
2022/10/30 03:43:49;;;;;;;51.28;13.40;;;;;;;15.20;69.19;98690.94;5277712;26;20049;-81
2022/10/30 03:46:16;;;;;;;80.87;15.35;;;;;;;15.79;67.13;98685.25;5277397;27;20069;-81
2022/10/30 03:48:47;;;;;;;42.25;13.35;;;;;;;16.13;65.79;98689.47;5277258;27;20057;-81
2022/10/30 03:51:14;;;;;;;107.22;15.45;;;;;;;16.32;65.01;98691.06;5277716;27;20731;-81
2022/10/30 03:53:40;;;;;;;78.65;14.23;;;;;;;16.46;64.38;98686.75;5277552;27;20045;-81
2022/10/30 03:56:08;;;;;;;72.53;12.85;;;;;;;17.54;59.98;98689.97;5277032;27;20061;-81
2022/10/30 03:58:35;;;;;;;133.90;15.98;;;;;;;17.92;57.52;98689.44;5277546;27;20404;-81
2022/10/30 04:01:04;;;;;;;181.20;15.60;;;;;;;17.18;59.73;98687.81;5277245;27;20546;-81
2022/10/30 04:03:31;;;;;;;266.17;20.95;;;;;;;16.52;62.44;98690.78;5258402;27;20053;-81
2022/10/30 04:05:58;;;;;;;62.80;13.00;;;;;;;15.77;65.82;98689.72;5277345;27;20076;-81
2022/10/30 04:08:25;;;;;;;96.90;14.50;;;;;;;16.13;64.66;98686.88;5277386;27;20123;-81
2022/10/30 04:10:52;;;;;;;124.57;15.65;;;;;;;16.12;64.16;98686.94;5277161;26;20054;-81
2022/10/30 04:13:19;;;;;;;147.10;16.58;;;;;;;16.45;63.50;98690.28;5277672;26;20113;-81
2022/10/30 04:15:48;;;;;;;226.85;19.73;;;;;;;16.04;64.65;98689.13;5277087;26;20065;-81
2022/10/30 04:18:23;;;;;;;198.80;18.12;;;;;;;16.49;63.31;98686.59;5277547;27;20117;-80
2022/10/30 04:20:50;;;;;;;183.60;14.75;;;;;;;15.11;69.13;98686.25;5277362;27;20106;-81
2022/10/30 04:23:18;;;;;;;124.07;14.93;;;;;;;16.18;65.11;98687.47;5277015;27;20094;-80
2022/10/30 04:25:45;;;;;;;113.35;14.05;;;;;;;14.96;69.17;98693.03;5277199;27;20061;-80
2022/10/30 04:28:13;;;;;;;67.05;12.70;;;;;;;15.30;67.97;98686.97;5277357;27;20064;-81
2022/10/30 04:30:40;;;;;;;149.52;15.55;;;;;;;15.89;65.62;98685.59;5276915;27;20313;-81
2022/10/30 04:33:10;;;;;;;103.68;14.55;;;;;;;16.10;64.82;98688.81;5277343;27;20046;-81
2022/10/30 04:35:37;;;;;;;123.30;14.87;;;;;;;16.51;63.25;98683.06;5277533;26;20400;-81
2022/10/30 04:38:06;;;;;;;98.35;15.38;;;;;;;16.60;62.40;98685.97;5277054;27;20122;-81
2022/10/30 04:40:36;;;;;;;63.83;13.02;;;;;;;17.00;60.60;98681.91;5277237;27;20050;-81
2022/10/30 04:43:03;;;;;;;64.90;13.80;;;;;;;16.74;60.90;98690.44;5276995;27;20578;-81
2022/10/30 04:45:30;;;;;;;83.22;13.80;;;;;;;15.34;65.73;98685.91;5277095;27;20361;-81
2022/10/30 04:48:02;;;;;;;88.28;14.05;;;;;;;14.51;68.53;98690.97;5277254;27;20066;-81
2022/10/30 04:50:30;;;;;;;89.70;14.80;;;;;;;15.02;67.21;98688.38;5276794;27;20393;-81
2022/10/30 04:53:02;;;;;;;101.50;14.23;;;;;;;15.19;66.54;98684.91;5277182;27;20056;-81
2022/10/30 04:55:29;;;;;;;75.97;14.23;;;;;;;15.20;67.12;98686.59;5277064;27;20065;-81
2022/10/30 04:57:57;;;;;;;88.72;12.70;;;;;;;15.96;64.53;98684.38;5276839;27;20065;-81
2022/10/30 05:00:26;;;;;;;65.72;13.18;;;;;;;16.21;63.40;98694.25;5277264;26;20046;-81
2022/10/30 05:02:53;;;;;;;82.28;13.57;;;;;;;16.27;63.41;98690.47;5277190;27;20380;-81
2022/10/30 05:05:20;;;;;;;58.78;12.63;;;;;;;15.85;64.68;98689.31;5276418;27;20061;-81
2022/10/30 05:07:47;;;;;;;60.10;11.77;;;;;;;16.30;63.64;98692.91;5276991;27;20061;-81
2022/10/30 05:10:14;;;;;;;76.57;12.75;;;;;;;16.14;64.07;98698.94;5277025;26;20064;-81
2022/10/30 05:12:42;;;;;;;48.17;12.88;;;;;;;15.88;65.21;98702.97;5276741;27;20080;-81
2022/10/30 05:15:10;;;;;;;55.20;11.98;;;;;;;14.51;70.24;98704.78;5276958;26;20076;-81
2022/10/30 05:17:37;;;;;;;77.28;13.32;;;;;;;15.08;69.30;98697.63;5277017;27;20065;-81
2022/10/30 05:20:05;;;;;;;66.47;12.77;;;;;;;16.03;65.64;98701.31;5276688;27;20104;-81
2022/10/30 05:22:32;;;;;;;73.35;12.18;;;;;;;16.34;63.40;98695.25;5276790;27;20046;-81
2022/10/30 05:24:59;;;;;;;75.43;12.13;;;;;;;16.87;60.64;98699.22;5276834;27;20079;-81
2022/10/30 05:27:26;;;;;;;116.90;12.90;;;;;;;16.62;61.71;98701.53;5276691;27;20418;-81
2022/10/30 05:29:52;;;;;;;89.20;13.00;;;;;;;15.96;63.93;98707.78;5276831;27;20045;-81
2022/10/30 05:32:19;;;;;;;35.42;10.57;;;;;;;15.73;65.28;98703.78;5277346;27;20383;-81
2022/10/30 05:34:46;;;;;;;166.80;17.05;;;;;;;15.94;64.62;98701.81;5277988;27;20065;-81
2022/10/30 05:37:13;;;;;;;114.70;14.23;;;;;;;16.33;63.61;98713.56;5278071;27;20060;-81
2022/10/30 05:39:40;;;;;;;83.30;12.98;;;;;;;15.93;64.91;98705.31;5276217;27;20457;-81
2022/10/30 05:42:07;;;;;;;69.22;12.60;;;;;;;15.78;66.19;98706.16;5278035;27;20411;-81
2022/10/30 05:44:39;;;;;;;66.37;11.98;;;;;;;15.19;68.38;98710.91;5278077;27;20081;-81
2022/10/30 05:47:26;;;;;;;42.93;10.30;;;;;;;15.43;67.81;98708.84;5277409;27;20080;-81
2022/10/30 05:49:53;;;;;;;52.13;11.07;;;;;;;15.64;67.70;98719.06;5277938;27;20045;-80
2022/10/30 05:52:20;;;;;;;85.12;12.48;;;;;;;16.55;64.72;98715.81;5278096;27;20080;-80
2022/10/30 05:54:47;;;;;;;60.63;11.65;;;;;;;16.66;64.50;98716.03;5277484;27;20081;-80
2022/10/30 05:57:13;;;;;;;80.50;11.48;;;;;;;16.93;63.58;98719.72;5277975;27;20072;-81
2022/10/30 05:59:40;;;;;;;88.00;12.02;;;;;;;16.44;65.58;98719.03;5278057;27;20045;-81
2022/10/30 06:02:07;;;;;;;83.35;12.10;;;;;;;15.55;68.51;98716.00;5277438;27;20437;-81
2022/10/30 06:04:34;;;;;;;78.40;12.32;;;;;;;16.33;66.74;98721.37;5277888;27;20077;-81
2022/10/30 06:07:01;;;;;;;81.05;12.23;;;;;;;16.17;67.57;98731.81;5278008;27;20400;-81
2022/10/30 06:09:28;;;;;;;54.17;11.07;;;;;;;16.94;64.81;98733.59;5277550;27;20060;-81
2022/10/30 06:11:55;;;;;;;42.55;10.43;;;;;;;17.84;60.23;98729.06;5293265;27;20041;-81
2022/10/30 06:14:22;;;;;;;74.45;11.20;;;;;;;17.22;62.27;98732.81;5299330;27;20061;-81
2022/10/30 06:16:49;;;;;;;38.10;10.60;;;;;;;17.26;62.45;98736.94;5299657;27;20060;-81
2022/10/30 06:19:16;;;;;;;61.65;15.30;;;;;;;16.64;64.64;98743.94;5299844;27;20064;-81
2022/10/30 06:21:45;;;;;;;76.43;16.40;;;;;;;16.47;66.17;98748.31;5299509;27;20045;-81
2022/10/30 06:24:12;;;;;;;114.07;17.23;;;;;;;17.27;63.25;98747.25;5299716;27;20388;-81
2022/10/30 06:26:39;;;;;;;80.85;12.52;;;;;;;17.14;62.60;98751.53;5299583;27;20072;-81
2022/10/30 06:29:06;;;;;;;63.05;11.63;;;;;;;16.73;64.86;98739.09;5299431;27;20109;-81
2022/10/30 06:31:33;;;;;;;62.67;11.40;;;;;;;17.40;62.64;98743.94;5280421;27;20045;-81
2022/10/30 06:34:00;;;;;;;45.25;10.82;;;;;;;17.77;62.02;98748.66;5299924;27;20057;-81
2022/10/30 06:36:27;;;;;;;42.60;10.90;;;;;;;18.07;59.62;98748.53;5299111;27;20118;-81
2022/10/30 06:38:54;;;;;;;61.65;11.18;;;;;;;17.53;62.20;98750.91;5299729;27;20048;-81
2022/10/30 06:41:21;;;;;;;52.13;10.75;;;;;;;17.63;62.13;98756.44;5299821;27;20052;-81
2022/10/30 06:43:54;;;;;;;45.85;9.90;;;;;;;17.43;63.24;98755.00;5299383;27;20113;-81
2022/10/30 06:46:21;;;;;;;34.42;9.73;;;;;;;18.33;59.98;98762.59;5299562;27;20505;-81
2022/10/30 06:48:54;;;;;;;29.42;10.00;;;;;;;17.86;61.54;98758.53;5281257;27;20097;-81
2022/10/30 06:51:21;;;;;;;60.17;11.05;;;;;;;18.59;58.68;98758.28;5299350;27;20547;-81
2022/10/30 06:53:48;;;;;;;39.25;9.75;;;;;;;17.74;60.51;98748.81;5299703;27;20359;-81
2022/10/30 06:56:15;;;;;;;22.55;8.38;;;;;;;18.65;58.54;98752.72;5299522;27;20072;-81
2022/10/30 06:58:42;;;;;;;23.87;9.40;;;;;;;17.85;61.13;98756.84;5299374;27;20053;-81
2022/10/30 07:01:10;;;;;;;27.02;9.70;;;;;;;16.81;64.36;98750.87;5299698;27;20056;-81
2022/10/30 07:03:36;;;;;;;37.13;9.52;;;;;;;17.49;63.36;98751.22;5299362;27;20071;-81
2022/10/30 07:06:03;;;;;;;55.85;10.63;;;;;;;18.58;60.33;98750.56;5299579;27;20060;-81
2022/10/30 07:08:31;;;;;;;32.58;9.68;;;;;;;17.81;62.71;98757.13;5274942;27;141051;-81
2022/10/30 07:10:58;;;;;;;46.33;10.65;;;;;;;17.45;63.97;98747.94;5298823;27;20102;-81
2022/10/30 07:13:25;;;;;;;36.13;10.43;;;;;;;16.57;66.38;98750.44;5299673;27;20419;-81
2022/10/30 07:15:52;;;;;;;46.55;10.35;;;;;;;18.33;60.87;98739.06;5299551;27;20526;-81
2022/10/30 07:18:18;;;;;;;49.90;10.30;;;;;;;17.12;64.48;98742.97;5299158;27;20053;-81
2022/10/30 07:20:45;;;;;;;28.45;10.32;;;;;;;18.21;61.91;98743.28;5299648;27;20041;-81
2022/10/30 07:23:12;;;;;;;24.98;10.35;;;;;;;18.75;60.46;98748.56;5299586;27;20057;-81
2022/10/30 07:25:39;;;;;;;51.53;10.30;;;;;;;19.15;59.49;98755.59;5299148;27;20079;-81
2022/10/30 07:28:06;;;;;;;42.05;10.27;;;;;;;18.15;61.05;98761.94;5299619;27;20391;-81
2022/10/30 07:30:33;;;;;;;32.33;9.77;;;;;;;18.81;59.20;98762.16;5299451;27;20056;-81
2022/10/30 07:33:04;;;;;;;82.32;11.57;;;;;;;18.89;58.53;98767.75;5299248;27;20076;-81
2022/10/30 07:35:33;;;;;;;42.72;9.80;;;;;;;16.95;65.60;98767.38;5299540;27;20324;-81
2022/10/30 07:38:04;;;;;;;42.97;10.75;;;;;;;17.28;64.78;98775.03;5299423;27;20053;-81
2022/10/30 07:40:31;;;;;;;66.78;11.18;;;;;;;17.86;63.87;98775.94;5279630;27;20065;-81
2022/10/30 07:43:00;;;;;;;44.13;11.07;;;;;;;17.80;63.08;98764.13;5299502;27;20379;-81
2022/10/30 07:45:28;;;;;;;44.33;9.98;;;;;;;18.32;62.06;98763.50;5279799;27;20128;-81
2022/10/30 07:47:55;;;;;;;43.65;11.50;;;;;;;18.09;63.44;98767.56;5299402;27;20400;-81
2022/10/30 07:50:23;;;;;;;34.00;9.98;;;;;;;18.49;62.15;98765.03;5299359;27;20399;-81
2022/10/30 07:52:50;;;;;;;41.33;10.23;;;;;;;19.58;57.74;98759.63;5299094;27;20122;-80
2022/10/30 07:55:17;;;;;;;66.07;11.40;;;;;;;19.65;56.67;98758.25;5298962;27;20087;-80
2022/10/30 07:57:44;;;;;;;35.90;10.45;;;;;;;18.76;60.77;98765.94;5299454;27;20053;-80
2022/10/30 08:00:12;;;;;;;53.63;12.30;;;;;;;18.84;61.32;98755.00;5298985;27;20308;-80
2022/10/30 08:02:39;;;;;;;42.08;11.85;;;;;;;18.69;62.28;98758.56;5299378;27;20072;-80
2022/10/30 08:05:07;;;;;;;33.25;11.25;;;;;;;18.20;63.52;98765.13;5279936;27;20063;-80
2022/10/30 08:07:36;;;;;;;40.53;11.38;;;;;;;16.32;71.29;98771.78;5298891;27;20102;-80
2022/10/30 08:10:04;;;;;;;27.30;10.85;;;;;;;17.04;68.73;98774.69;5299239;27;20551;-80
2022/10/30 08:12:32;;;;;;;49.35;11.27;;;;;;;17.03;70.52;98774.78;5299230;27;20057;-80
2022/10/30 08:14:59;;;;;;;27.65;10.55;;;;;;;16.78;72.19;98767.50;5298787;27;20060;-80
2022/10/30 08:17:27;;;;;;;28.75;10.75;;;;;;;17.44;68.88;98761.94;5299269;27;20048;-80
2022/10/30 08:19:55;;;;;;;33.13;10.48;;;;;;;17.58;68.45;98766.31;5299329;27;20443;-80
2022/10/30 08:22:23;;;;;;;34.55;9.77;;;;;;;18.19;67.03;98758.22;5299036;27;20116;-80
2022/10/30 08:24:50;;;;;;;29.80;10.88;;;;;;;18.87;64.75;98772.25;5299221;27;20077;-80
2022/10/30 08:27:17;;;;;;;29.75;10.13;;;;;;;18.79;64.95;98768.34;5299175;27;20049;-80
2022/10/30 08:29:43;;;;;;;38.03;9.68;;;;;;;19.38;63.06;98762.72;5298752;27;20097;-80
2022/10/30 08:32:10;;;;;;;19.75;9.55;;;;;;;17.69;68.61;98757.84;5299236;27;20057;-80
2022/10/30 08:34:37;;;;;;;14.45;8.27;;;;;;;17.95;68.45;98769.34;5298785;27;20061;-80
2022/10/30 08:37:06;;;;;;;29.35;10.40;;;;;;;18.10;67.58;98765.78;5299118;27;20053;-80
2022/10/30 08:39:33;;;;;;;25.20;10.00;;;;;;;17.76;69.24;98769.62;5280286;27;20061;-80
2022/10/30 08:42:00;;;;;;;40.00;9.68;;;;;;;17.22;72.46;98774.53;5298848;27;20119;-80
2022/10/30 08:44:27;;;;;;;39.88;9.60;;;;;;;18.56;67.86;98773.34;5299178;27;20105;-80
2022/10/30 08:46:54;;;;;;;25.30;10.10;;;;;;;17.57;71.26;98775.91;5299060;27;20067;-80
2022/10/30 08:49:21;;;;;;;41.22;9.98;;;;;;;17.57;71.93;98778.53;5298719;27;20403;-80
2022/10/30 08:51:48;;;;;;;35.08;10.35;;;;;;;18.09;69.83;98787.63;5299077;27;20072;-80
2022/10/30 08:54:14;;;;;;;36.63;10.98;;;;;;;16.85;75.52;98791.44;5299062;27;20469;-80
2022/10/30 08:56:41;;;;;;;40.40;10.85;;;;;;;17.21;74.62;98785.88;5298582;27;20045;-80
2022/10/30 08:59:08;;;;;;;76.95;11.70;;;;;;;18.04;71.64;98780.06;5299026;27;20045;-81
2022/10/30 09:01:35;;;;;;;31.08;10.40;;;;;;;18.64;68.88;98790.25;5299096;27;20137;-81
2022/10/30 09:04:03;;;;;;;28.70;10.07;;;;;;;18.78;68.71;98790.19;5298816;27;20412;-81
2022/10/30 09:06:30;;;;;;;43.58;9.95;;;;;;;17.47;73.27;98780.00;5299283;27;20053;-81
2022/10/30 09:08:57;;;;;;;46.58;10.68;;;;;;;17.31;74.00;98787.03;5300078;27;20420;-81
2022/10/30 09:11:24;;;;;;;54.95;11.07;;;;;;;16.73;78.54;98783.41;5299246;27;20411;-81
2022/10/30 09:13:51;;;;;;;52.70;11.98;;;;;;;16.03;81.11;98781.16;5300066;27;20061;-81
2022/10/30 09:16:18;;;;;;;25.52;11.55;;;;;;;16.96;78.79;98784.69;5299794;27;20057;-81
2022/10/30 09:18:45;;;;;;;44.22;10.48;;;;;;;16.75;78.42;98778.09;5299723;27;20056;-81
2022/10/30 09:21:12;;;;;;;51.85;11.40;;;;;;;16.77;78.96;98784.91;5300045;27;20072;-81
2022/10/30 09:23:41;;;;;;;32.88;11.12;;;;;;;17.42;76.95;98784.62;5300082;27;20061;-81
2022/10/30 09:26:08;;;;;;;23.20;10.85;;;;;;;16.18;80.94;98778.59;5299867;27;20053;-81
2022/10/30 09:28:35;;;;;;;30.90;11.40;;;;;;;16.15;81.52;98773.53;5299886;27;20407;-81
2022/10/30 09:31:02;;;;;;;39.75;12.07;;;;;;;16.65;79.66;98779.50;5299751;27;20549;-81
2022/10/30 09:33:29;;;;;;;31.30;11.40;;;;;;;16.92;77.90;98780.59;5300012;27;20071;-81
2022/10/30 09:35:56;;;;;;;21.95;11.93;;;;;;;17.15;76.77;98776.66;5280470;27;20067;-81
2022/10/30 09:38:23;;;;;;;32.65;11.05;;;;;;;17.19;77.50;98777.31;5299509;27;20059;-81
2022/10/30 09:41:21;;;;;;;29.58;12.35;;;;;;;17.49;76.95;98778.12;5280491;27;20062;-81
2022/10/30 09:44:25;;;;;;;23.85;11.63;;;;;;;18.61;72.66;98773.87;5300035;27;20064;-81
2022/10/30 09:47:07;;;;;;;34.42;11.90;;;;;;;18.49;71.63;98772.88;5299505;27;20045;-81
2022/10/30 09:49:55;;;;;;;25.27;11.90;;;;;;;18.76;71.24;98773.78;5300093;27;20490;-81
2022/10/30 09:52:47;;;;;;;21.12;11.18;;;;;;;20.47;64.10;98767.38;5299533;27;20071;-81
2022/10/30 09:55:32;;;;;;;31.50;12.13;;;;;;;19.85;66.33;98769.97;5299537;27;20106;-81
2022/10/30 09:58:29;;;;;;;24.37;12.43;;;;;;;20.29;64.24;98773.06;5280381;27;20052;-81
2022/10/30 10:01:12;;;;;;;27.30;12.63;;;;;;;20.59;63.50;98763.03;5299741;27;20041;-81
2022/10/30 10:04:13;;;;;;;22.13;12.10;;;;;;;20.93;61.11;98776.31;5299976;27;20113;-81
2022/10/30 10:06:43;;;;;;;23.58;12.25;;;;;;;20.57;63.10;98769.34;5280044;27;20106;-81
2022/10/30 10:09:19;;;;;;;19.23;11.65;;;;;;;21.29;61.50;98767.53;5280466;27;20068;-81
2022/10/30 10:12:04;;;;;;;18.58;11.65;;;;;;;21.45;60.71;98765.41;5299410;27;20045;-81
2022/10/30 10:14:35;;;;;;;18.67;11.65;;;;;;;20.76;61.93;98767.06;5299334;27;20109;-81
2022/10/30 10:17:03;;;;;;;24.60;11.23;;;;;;;19.32;68.67;98763.12;5280117;27;20061;-81
2022/10/30 10:19:42;;;;;;;22.48;11.80;;;;;;;21.14;61.29;98761.59;5280416;27;20057;-81
2022/10/30 10:22:18;;;;;;;22.60;11.25;;;;;;;20.68;63.25;98764.16;5299429;27;20434;-81
2022/10/30 10:24:46;;;;;;;20.25;12.30;;;;;;;21.20;61.65;98773.44;5299597;27;20072;-81
2022/10/30 10:27:43;;;;;;;23.58;12.00;;;;;;;21.42;61.27;98770.91;5299348;27;20061;-81
2022/10/30 10:30:14;;;;;;;24.55;13.48;;;;;;;22.59;56.99;98774.03;5299856;27;20060;-81
2022/10/30 10:33:14;;;;;;;22.85;13.13;;;;;;;21.97;59.54;98771.91;5299865;27;20049;-81
2022/10/30 10:35:50;;;;;;;20.62;12.13;;;;;;;22.02;59.96;98761.06;5299318;27;20500;-81
2022/10/30 10:38:26;;;;;;;21.30;12.40;;;;;;;23.05;56.78;98757.97;5299746;27;20056;-81
2022/10/30 10:41:18;;;;;;;20.77;12.73;;;;;;;23.58;54.32;98755.31;5299567;27;20419;-81
2022/10/30 10:44:19;;;;;;;24.37;14.27;;;;;;;23.26;55.34;98751.87;5280745;27;20060;-81
2022/10/30 10:47:08;;;;;;;22.17;13.32;;;;;;;22.73;57.31;98757.13;5299669;27;20081;-81
2022/10/30 10:50:02;;;;;;;22.08;13.75;;;;;;;22.51;58.19;98758.00;5299408;27;20113;-81
2022/10/30 10:52:41;;;;;;;21.62;13.48;;;;;;;23.04;56.75;98751.03;5280246;27;20124;-81
2022/10/30 10:55:35;;;;;;;23.08;14.48;;;;;;;22.16;59.19;98748.53;5299261;27;20049;-81
2022/10/30 10:58:13;;;;;;;21.67;13.50;;;;;;;22.35;59.25;98744.44;5279734;27;20061;-81
2022/10/30 11:00:40;;;;;;;23.17;13.85;;;;;;;23.14;56.35;98737.97;5299758;27;20057;-81
2022/10/30 11:03:22;;;;;;;23.98;14.32;;;;;;;23.12;56.87;98733.78;5279827;27;20064;-81
2022/10/30 11:06:11;;;;;;;21.23;13.25;;;;;;;22.87;58.76;98727.94;5299470;27;20053;-81
2022/10/30 11:08:38;;;;;;;20.27;11.88;;;;;;;23.92;55.27;98739.25;5280225;27;20095;-81
2022/10/30 11:11:06;;;;;;;19.12;11.05;;;;;;;23.80;55.79;98721.84;5279562;27;20061;-81
2022/10/30 11:13:36;;;;;;;17.90;10.45;;;;;;;23.37;56.63;98722.84;5299561;27;20048;-81
2022/10/30 11:16:15;;;;;;;19.08;11.15;;;;;;;22.91;58.89;98718.81;5279836;27;20106;-81
2022/10/30 11:18:43;;;;;;;17.15;10.30;;;;;;;22.79;59.61;98718.00;5280064;27;20071;-81
2022/10/30 11:21:17;;;;;;;15.77;10.07;;;;;;;23.01;59.00;98717.09;5299582;27;20067;-81
2022/10/30 11:23:46;;;;;;;18.23;10.52;;;;;;;23.01;59.71;98711.00;5279879;27;20411;-81
2022/10/30 11:26:16;;;;;;;16.95;10.48;;;;;;;22.52;61.27;98720.25;5299467;27;20339;-81
2022/10/30 11:28:58;;;;;;;19.27;10.32;;;;;;;22.06;63.59;98710.78;5299277;27;20102;-81
2022/10/30 11:31:33;;;;;;;16.10;9.77;;;;;;;21.72;64.82;98715.19;5299122;27;20124;-80
2022/10/30 11:34:13;;;;;;;16.70;9.27;;;;;;;21.61;65.88;98707.31;5281320;27;20052;-80